createdAt,value
2019-05-18T00:02:28.260Z,10.24
2019-05-18T00:05:04.388Z,10.27
2019-05-18T00:07:39.827Z,10.14
2019-05-18T00:10:15.434Z,10.10
2019-05-18T00:12:50.818Z,9.88
2019-05-18T00:15:24.523Z,9.70
2019-05-18T00:18:00.187Z,9.62
2019-05-18T00:20:35.663Z,9.50
2019-05-18T00:23:09.555Z,9.75
2019-05-18T00:25:44.384Z,9.75
2019-05-18T00:28:18.140Z,9.61
2019-05-18T00:30:52.037Z,9.78
2019-05-18T00:33:26.065Z,9.66
2019-05-18T00:39:51.024Z,9.73
2019-05-18T00:42:26.238Z,9.73
2019-05-18T00:45:00.040Z,9.65
2019-05-18T00:47:41.345Z,9.81
2019-05-18T00:50:10.226Z,9.57
2019-05-18T00:52:44.740Z,9.87
2019-05-18T00:55:18.854Z,9.73
2019-05-18T00:57:56.545Z,9.78
2019-05-18T01:00:30.341Z,9.61
2019-05-18T01:03:05.178Z,9.61
2019-05-18T01:05:39.443Z,9.52
2019-05-18T01:08:13.166Z,9.54
2019-05-18T01:10:47.518Z,9.57
2019-05-18T01:13:22.386Z,9.60
2019-05-18T01:15:56.353Z,9.53
2019-05-18T01:18:30.169Z,9.43
2019-05-18T01:21:03.883Z,9.30
2019-05-18T01:23:37.928Z,9.23
2019-05-18T01:26:11.948Z,9.24
2019-05-18T01:28:45.710Z,9.29
2019-05-18T01:31:21.970Z,9.28
2019-05-18T01:33:56.803Z,9.25
2019-05-18T01:36:30.713Z,9.18
2019-05-18T01:39:08.511Z,9.04
2019-05-18T01:41:42.140Z,9.11
2019-05-18T01:44:16.260Z,9.25
2019-05-18T01:46:49.919Z,9.27
2019-05-18T01:49:23.568Z,9.13
2019-05-18T01:52:02.175Z,9.22
2019-05-18T01:54:36.372Z,9.30
2019-05-18T01:57:11.347Z,9.30
2019-05-18T01:59:45.005Z,9.31
2019-05-18T02:02:19.660Z,9.22
2019-05-18T02:04:55.394Z,9.14
2019-05-18T02:07:30.336Z,9.04
2019-05-18T02:10:05.358Z,8.97
2019-05-18T02:12:39.504Z,8.96
2019-05-18T02:15:14.082Z,8.97
2019-05-18T02:17:47.867Z,9.09
2019-05-18T02:20:21.743Z,9.08
2019-05-18T02:22:58.291Z,8.98
2019-05-18T02:25:31.980Z,8.87
2019-05-18T02:28:07.548Z,8.82
2019-05-18T02:30:41.145Z,8.72
2019-05-18T02:33:14.937Z,8.94
2019-05-18T02:35:48.588Z,8.92
2019-05-18T02:38:22.336Z,8.88
2019-05-18T02:40:57.857Z,8.89
2019-05-18T02:43:32.067Z,9.07
2019-05-18T02:46:06.889Z,8.87
2019-05-18T02:48:49.659Z,8.85
2019-05-18T02:51:18.755Z,8.81
2019-05-18T02:53:52.656Z,9.09
2019-05-18T02:56:28.545Z,9.02
2019-05-18T02:59:03.474Z,9.02
2019-05-18T03:01:37.537Z,8.97
2019-05-18T03:04:11.655Z,8.99
2019-05-18T03:06:45.414Z,9.04
2019-05-18T03:09:21.067Z,9.01
2019-05-18T03:11:56.381Z,8.93
2019-05-18T03:14:31.980Z,8.91
2019-05-18T03:17:06.002Z,8.89
2019-05-18T03:19:41.011Z,8.86
2019-05-18T03:22:14.665Z,8.73
2019-05-18T03:24:48.407Z,8.68
2019-05-18T03:27:22.321Z,8.52
2019-05-18T03:29:57.870Z,8.42
2019-05-18T03:32:31.696Z,8.34
2019-05-18T03:35:05.967Z,8.17
2019-05-18T03:37:39.757Z,8.05
2019-05-18T03:40:13.896Z,7.97
2019-05-18T03:42:53.820Z,7.96
2019-05-18T03:45:27.777Z,7.99
2019-05-18T03:48:01.817Z,8.04
2019-05-18T03:50:35.493Z,8.04
2019-05-18T03:53:09.188Z,8.09
2019-05-18T03:55:42.849Z,8.09
2019-05-18T03:58:18.521Z,8.12
2019-05-18T04:00:52.271Z,8.15
2019-05-18T04:03:25.900Z,8.38
2019-05-18T04:05:59.670Z,8.46
2019-05-18T04:08:34.564Z,8.70
2019-05-18T04:11:09.536Z,8.94
2019-05-18T04:13:43.765Z,9.34
2019-05-18T04:16:18.997Z,9.83
2019-05-18T04:18:53.831Z,10.85
2019-05-18T04:21:27.557Z,11.62
2019-05-18T04:24:01.249Z,12.16
2019-05-18T04:26:37.505Z,12.71
2019-05-18T04:29:12.760Z,13.17
2019-05-18T04:31:47.965Z,13.52
2019-05-18T04:34:23.638Z,13.80
2019-05-18T04:36:57.427Z,14.09
2019-05-18T04:39:31.130Z,14.41
2019-05-18T04:42:04.793Z,14.81
2019-05-18T04:44:38.631Z,15.17
2019-05-18T04:47:12.929Z,15.37
2019-05-18T04:50:03.923Z,15.64
2019-05-18T04:52:24.393Z,15.98
2019-05-18T04:54:59.273Z,16.42
2019-05-18T04:57:34.903Z,16.70
2019-05-18T05:00:09.230Z,16.89
2019-05-18T05:02:42.966Z,17.47
2019-05-18T05:05:16.930Z,18.06
2019-05-18T05:07:50.744Z,19.37
2019-05-18T05:10:24.845Z,17.97
2019-05-18T05:13:00.013Z,18.39
2019-05-18T05:15:34.191Z,20.04
2019-05-18T05:18:09.745Z,20.82
2019-05-18T05:20:43.646Z,20.58
2019-05-18T05:23:19.253Z,21.20
2019-05-18T05:25:53.412Z,19.92
2019-05-18T05:28:27.076Z,20.54
2019-05-18T05:31:01.070Z,20.76
2019-05-18T05:33:35.492Z,20.26
2019-05-18T05:36:09.275Z,21.75
2019-05-18T05:38:43.076Z,20.62
2019-05-18T05:41:17.411Z,20.43
2019-05-18T05:43:51.464Z,20.73
2019-05-18T05:46:27.044Z,19.86
2019-05-18T05:49:02.817Z,20.00
2019-05-18T05:51:36.745Z,20.21
2019-05-18T05:54:12.535Z,19.77
2019-05-18T05:56:49.379Z,20.48
2019-05-18T05:59:23.151Z,22.06
2019-05-18T06:01:58.409Z,21.55
2019-05-18T06:04:32.226Z,20.51
2019-05-18T06:07:07.854Z,21.66
2019-05-18T06:09:42.566Z,23.72
2019-05-18T06:12:19.372Z,23.99
2019-05-18T06:14:53.279Z,24.69
2019-05-18T06:17:27.067Z,23.26
2019-05-18T06:20:02.517Z,23.24
2019-05-18T06:22:38.581Z,23.29
2019-05-18T06:25:13.103Z,24.19
2019-05-18T06:27:47.629Z,23.28
2019-05-18T06:30:23.711Z,23.93
2019-05-18T06:32:57.439Z,23.43
2019-05-18T06:35:31.196Z,22.32
2019-05-18T06:38:05.717Z,22.59
2019-05-18T06:40:39.738Z,22.03
2019-05-18T06:43:14.510Z,22.33
2019-05-18T06:45:49.806Z,21.59
2019-05-18T06:48:24.678Z,24.03
2019-05-18T06:51:06.654Z,23.97
2019-05-18T06:53:35.529Z,23.64
2019-05-18T06:56:09.693Z,22.03
2019-05-18T06:58:44.835Z,22.72
2019-05-18T07:01:18.653Z,24.15
2019-05-18T07:03:53.933Z,23.46
2019-05-18T07:06:27.606Z,22.68
2019-05-18T07:09:01.362Z,24.29
2019-05-18T07:11:35.367Z,23.63
2019-05-18T07:14:09.242Z,22.88
2019-05-18T07:16:43.428Z,22.80
2019-05-18T07:19:17.864Z,22.05
2019-05-18T07:21:51.487Z,22.76
2019-05-18T07:24:25.735Z,24.01
2019-05-18T07:26:59.704Z,22.25
2019-05-18T07:29:34.578Z,22.60
2019-05-18T07:32:08.706Z,22.88
2019-05-18T07:34:42.718Z,23.62
2019-05-18T07:37:16.509Z,24.16
2019-05-18T07:39:52.399Z,23.70
2019-05-18T07:42:26.233Z,23.76
2019-05-18T07:45:00.997Z,24.20
2019-05-18T07:47:34.929Z,24.38
2019-05-18T07:50:09.196Z,24.70
2019-05-18T07:52:43.347Z,22.71
2019-05-18T07:55:17.143Z,23.56
2019-05-18T07:57:52.569Z,24.39
2019-05-18T08:00:26.413Z,23.09
2019-05-18T08:03:02.692Z,23.27
2019-05-18T08:05:37.648Z,23.35
2019-05-18T08:08:12.952Z,22.94
2019-05-18T08:10:46.829Z,22.20
2019-05-18T08:13:20.673Z,23.20
2019-05-18T08:16:09.838Z,22.46
2019-05-18T08:18:44.015Z,22.10
2019-05-18T08:21:17.858Z,23.02
2019-05-18T08:23:54.660Z,23.78
2019-05-18T08:26:28.336Z,23.65
2019-05-18T08:29:02.091Z,23.25
2019-05-18T08:31:36.055Z,23.56
2019-05-18T08:34:10.094Z,23.39
2019-05-18T08:36:43.872Z,22.76
2019-05-18T08:39:17.551Z,22.18
2019-05-18T08:41:51.262Z,22.03
2019-05-18T08:44:26.534Z,22.22
2019-05-18T08:47:01.645Z,22.91
2019-05-18T08:49:35.523Z,23.46
2019-05-18T08:52:11.111Z,21.70
2019-05-18T08:54:45.850Z,21.62
2019-05-18T08:57:19.678Z,21.73
2019-05-18T08:59:54.148Z,21.51
2019-05-18T09:02:27.950Z,22.11
2019-05-18T09:05:05.024Z,22.23
2019-05-18T09:07:39.084Z,22.22
2019-05-18T09:10:15.765Z,22.60
2019-05-18T09:12:51.095Z,22.24
2019-05-18T09:15:26.441Z,21.66
2019-05-18T09:18:00.051Z,22.46
2019-05-18T09:20:33.899Z,22.72
2019-05-18T09:23:07.766Z,22.74
2019-05-18T09:25:41.775Z,22.24
2019-05-18T09:28:15.993Z,22.10
2019-05-18T09:30:49.634Z,21.75
2019-05-18T09:33:24.843Z,21.98
2019-05-18T09:35:58.631Z,22.05
2019-05-18T09:38:33.786Z,21.87
2019-05-18T09:41:07.558Z,21.27
2019-05-18T09:43:41.513Z,21.73
2019-05-18T09:46:16.999Z,21.39
2019-05-18T09:48:50.873Z,21.18
2019-05-18T09:51:24.783Z,20.76
2019-05-18T09:54:08.603Z,21.10
2019-05-18T09:56:43.161Z,21.10
2019-05-18T09:59:20.015Z,21.60
2019-05-18T10:01:55.153Z,21.39
2019-05-18T10:04:29.418Z,21.54
2019-05-18T10:07:07.681Z,22.11
2019-05-18T10:09:43.683Z,22.31
2019-05-18T10:12:18.458Z,22.48
2019-05-18T10:14:52.351Z,22.34
2019-05-18T10:17:29.606Z,21.81
2019-05-18T10:20:05.253Z,21.94
2019-05-18T10:22:53.460Z,22.50
2019-05-18T10:25:15.406Z,22.42
2019-05-18T10:27:51.357Z,22.40
2019-05-18T10:30:25.149Z,22.53
2019-05-18T10:32:59.194Z,22.84
2019-05-18T10:35:32.972Z,22.83
2019-05-18T10:38:08.319Z,22.83
2019-05-18T10:40:42.454Z,22.59
2019-05-18T10:43:16.194Z,22.80
2019-05-18T10:45:50.054Z,22.59
2019-05-18T10:48:23.908Z,22.44
2019-05-18T10:51:07.037Z,22.67
2019-05-18T10:53:41.789Z,22.88
2019-05-18T10:56:15.721Z,22.57
2019-05-18T10:58:51.232Z,23.16
2019-05-18T11:01:25.563Z,22.82
2019-05-18T11:03:59.355Z,22.27
2019-05-18T11:06:33.100Z,22.27
2019-05-18T11:09:08.798Z,22.36
2019-05-18T11:11:42.559Z,22.65
2019-05-18T11:14:18.838Z,23.03
2019-05-18T11:16:53.504Z,23.01
2019-05-18T11:19:28.172Z,23.21
2019-05-18T11:22:02.154Z,22.73
2019-05-18T11:24:35.878Z,22.24
2019-05-18T11:27:10.539Z,22.10
2019-05-18T11:29:44.263Z,22.06
2019-05-18T11:32:18.126Z,21.60
2019-05-18T11:34:51.911Z,21.87
2019-05-18T11:37:27.389Z,21.72
2019-05-18T11:40:01.499Z,21.85
2019-05-18T11:42:35.145Z,21.59
2019-05-18T11:45:12.308Z,21.59
2019-05-18T11:47:46.900Z,21.37
2019-05-18T11:50:21.513Z,21.80
2019-05-18T11:52:55.260Z,22.11
2019-05-18T11:55:29.107Z,22.57
2019-05-18T11:58:05.837Z,22.35
2019-05-18T12:00:42.526Z,22.68
2019-05-18T12:03:17.661Z,22.73
2019-05-18T12:05:51.372Z,22.84
2019-05-18T12:08:25.483Z,22.74
2019-05-18T12:10:59.281Z,23.24
2019-05-18T12:13:33.109Z,23.10
2019-05-18T12:16:08.019Z,22.70
2019-05-18T12:18:43.463Z,23.26
2019-05-18T12:21:17.694Z,22.49
2019-05-18T12:23:53.571Z,22.70
2019-05-18T12:26:27.549Z,22.47
2019-05-18T12:29:02.401Z,23.25
2019-05-18T12:31:36.211Z,22.80
2019-05-18T12:34:11.832Z,22.50
2019-05-18T12:36:47.697Z,23.03
2019-05-18T12:39:22.445Z,22.83
2019-05-18T12:41:56.457Z,23.22
2019-05-18T12:44:30.603Z,23.43
2019-05-18T12:47:04.617Z,23.26
2019-05-18T12:49:38.438Z,23.44
2019-05-18T12:52:13.406Z,22.88
2019-05-18T12:54:47.451Z,23.46
2019-05-18T12:57:21.341Z,22.85
2019-05-18T12:59:55.340Z,22.19
2019-05-18T13:02:29.156Z,22.47
2019-05-18T13:05:05.537Z,21.82
2019-05-18T13:07:39.271Z,22.42
2019-05-18T13:10:14.946Z,22.87
2019-05-18T13:12:48.869Z,22.17
2019-05-18T13:15:23.614Z,23.07
2019-05-18T13:17:57.718Z,22.44
2019-05-18T13:20:35.127Z,22.51
2019-05-18T13:23:09.128Z,23.20
2019-05-18T13:25:43.044Z,22.96
2019-05-18T13:28:17.114Z,22.21
2019-05-18T13:30:50.973Z,22.37
2019-05-18T13:33:26.207Z,22.55
2019-05-18T13:36:01.488Z,22.52
2019-05-18T13:38:35.229Z,22.60
2019-05-18T13:41:08.967Z,22.96
2019-05-18T13:43:42.885Z,22.83
2019-05-18T13:46:16.943Z,23.21
2019-05-18T13:48:50.670Z,23.62
2019-05-18T13:51:24.347Z,23.15
2019-05-18T13:53:58.513Z,22.98
2019-05-18T13:56:33.841Z,22.91
2019-05-18T13:59:07.481Z,23.26
2019-05-18T14:01:41.753Z,23.06
2019-05-18T14:04:16.811Z,22.91
2019-05-18T14:06:52.364Z,22.65
2019-05-18T14:09:29.545Z,22.54
2019-05-18T14:12:06.719Z,22.90
2019-05-18T14:14:40.749Z,23.16
2019-05-18T14:17:14.487Z,23.06
2019-05-18T14:19:48.312Z,23.17
2019-05-18T14:22:22.398Z,22.94
2019-05-18T14:24:57.960Z,22.93
2019-05-18T14:27:33.668Z,23.01
2019-05-18T14:30:09.001Z,23.24
2019-05-18T14:32:44.672Z,23.12
2019-05-18T14:35:19.600Z,22.80
2019-05-18T14:37:58.751Z,22.57
2019-05-18T14:40:32.444Z,22.51
2019-05-18T14:43:06.294Z,22.81
2019-05-18T14:45:42.917Z,22.81
2019-05-18T14:48:16.547Z,23.10
2019-05-18T14:50:50.210Z,23.01
2019-05-18T14:53:23.935Z,22.80
2019-05-18T14:55:59.170Z,22.54
2019-05-18T14:58:33.273Z,22.91
2019-05-18T15:01:07.068Z,22.96
2019-05-18T15:03:41.015Z,21.94
2019-05-18T15:06:16.251Z,22.04
2019-05-18T15:08:52.201Z,22.59
2019-05-18T15:11:27.144Z,23.04
2019-05-18T15:14:00.902Z,23.23
2019-05-18T15:16:35.910Z,23.16
2019-05-18T15:19:10.194Z,22.82
2019-05-18T15:21:45.961Z,22.92
2019-05-18T15:24:19.880Z,22.48
2019-05-18T15:26:54.695Z,22.72
2019-05-18T15:29:28.448Z,23.03
2019-05-18T15:32:02.206Z,23.27
2019-05-18T15:34:35.937Z,23.34
2019-05-18T15:37:11.247Z,22.97
2019-05-18T15:39:45.267Z,22.64
2019-05-18T15:42:18.968Z,22.66
2019-05-18T15:44:54.318Z,22.46
2019-05-18T15:47:28.232Z,22.12
2019-05-18T15:50:03.698Z,22.42
2019-05-18T15:52:37.586Z,22.75
2019-05-18T15:55:12.120Z,23.05
2019-05-18T15:57:45.741Z,22.80
2019-05-18T16:00:21.662Z,22.66
2019-05-18T16:02:55.449Z,22.61
2019-05-18T16:05:30.411Z,22.19
2019-05-18T16:08:04.213Z,22.39
2019-05-18T16:10:51.954Z,22.13
2019-05-18T16:13:25.929Z,22.14
2019-05-18T16:15:59.767Z,22.52
2019-05-18T16:18:33.521Z,22.59
2019-05-18T16:21:07.377Z,22.44
2019-05-18T16:23:42.223Z,22.49
2019-05-18T16:26:21.554Z,22.33
2019-05-18T16:28:52.369Z,21.91
2019-05-18T16:31:26.465Z,22.03
2019-05-18T16:34:01.276Z,21.75
2019-05-18T16:36:35.051Z,22.13
2019-05-18T16:39:10.270Z,22.36
2019-05-18T16:41:45.757Z,22.17
2019-05-18T16:44:20.863Z,22.06
2019-05-18T16:46:54.773Z,22.12
2019-05-18T16:49:28.793Z,22.36
2019-05-18T16:52:02.442Z,21.78
2019-05-18T16:54:37.527Z,21.87
2019-05-18T16:57:11.610Z,21.88
2019-05-18T16:59:45.370Z,21.74
2019-05-18T17:02:31.171Z,21.58
2019-05-18T17:04:55.170Z,21.60
2019-05-18T17:07:29.132Z,21.54
2019-05-18T17:10:06.618Z,21.52
2019-05-18T17:12:42.636Z,21.73
2019-05-18T17:15:16.835Z,21.72
2019-05-18T17:17:52.757Z,21.61
2019-05-18T17:20:27.706Z,21.57
2019-05-18T17:23:01.513Z,21.42
2019-05-18T17:25:39.237Z,21.15
2019-05-18T17:28:13.232Z,21.17
2019-05-18T17:30:47.116Z,21.14
2019-05-18T17:33:21.445Z,21.20
2019-05-18T17:36:00.241Z,21.06
2019-05-18T17:38:31.303Z,21.07
2019-05-18T17:41:05.410Z,21.05
2019-05-18T17:43:39.197Z,21.06
2019-05-18T17:46:14.791Z,20.89
2019-05-18T17:48:49.715Z,20.91
2019-05-18T17:51:24.433Z,20.89
2019-05-18T17:53:59.348Z,20.71
2019-05-18T17:56:33.672Z,20.80
2019-05-18T17:59:07.573Z,20.76
2019-05-18T18:01:41.732Z,20.59
2019-05-18T18:04:16.004Z,20.49
2019-05-18T18:06:52.160Z,20.43
2019-05-18T18:09:26.269Z,20.45
2019-05-18T18:12:00.127Z,20.61
2019-05-18T18:14:33.951Z,20.37
2019-05-18T18:17:09.813Z,20.35
2019-05-18T18:19:44.507Z,20.26
2019-05-18T18:22:18.303Z,20.19
2019-05-18T18:24:53.368Z,20.06
2019-05-18T18:27:29.728Z,20.09
2019-05-18T18:30:03.335Z,19.96
2019-05-18T18:32:37.179Z,20.03
2019-05-18T18:35:11.758Z,20.02
2019-05-18T18:37:47.344Z,19.81
2019-05-18T18:40:21.488Z,19.88
2019-05-18T18:42:55.415Z,19.71
2019-05-18T18:45:29.250Z,19.59
2019-05-18T18:48:03.424Z,19.47
2019-05-18T18:50:37.499Z,19.44
2019-05-18T18:53:13.441Z,19.36
2019-05-18T18:55:47.742Z,19.24
2019-05-18T18:58:22.172Z,19.16
2019-05-18T19:00:59.208Z,19.00
2019-05-18T19:03:33.461Z,18.84
2019-05-18T19:06:07.367Z,18.61
2019-05-18T19:08:41.132Z,18.42
2019-05-18T19:11:15.052Z,18.35
2019-05-18T19:13:48.891Z,18.05
2019-05-18T19:16:22.697Z,17.97
2019-05-18T19:18:56.358Z,17.82
2019-05-18T19:21:31.151Z,17.64
2019-05-18T19:24:06.898Z,17.64
2019-05-18T19:26:41.989Z,17.57
2019-05-18T19:29:16.088Z,17.51
2019-05-18T19:31:53.339Z,17.38
2019-05-18T19:34:27.121Z,17.33
2019-05-18T19:37:00.943Z,17.26
2019-05-18T19:39:35.957Z,17.17
2019-05-18T19:42:14.097Z,17.01
2019-05-18T19:44:50.488Z,16.87
2019-05-18T19:47:24.538Z,16.76
2019-05-18T19:49:59.790Z,16.71
2019-05-18T19:52:34.827Z,16.57
2019-05-18T19:55:09.878Z,16.47
2019-05-18T19:57:43.905Z,16.39
2019-05-18T20:00:19.309Z,16.28
2019-05-18T20:02:53.034Z,16.22
2019-05-18T20:05:26.994Z,16.09
2019-05-18T20:08:01.088Z,16.08
2019-05-18T20:10:35.254Z,15.99
2019-05-18T20:13:10.487Z,15.91
2019-05-18T20:15:44.201Z,15.85
2019-05-18T20:18:19.867Z,15.81
2019-05-18T20:20:53.531Z,15.72
2019-05-18T20:23:27.508Z,15.67
2019-05-18T20:26:03.144Z,15.62
2019-05-18T20:28:37.563Z,15.55
2019-05-18T20:31:11.404Z,15.50
2019-05-18T20:33:45.239Z,15.41
2019-05-18T20:36:19.375Z,15.39
2019-05-18T20:39:06.036Z,15.32
2019-05-18T20:41:40.156Z,15.28
2019-05-18T20:44:14.045Z,15.24
2019-05-18T20:46:47.953Z,15.13
2019-05-18T20:49:24.867Z,15.06
2019-05-18T20:52:00.353Z,14.98
2019-05-18T20:54:35.550Z,14.95
2019-05-18T20:57:09.253Z,14.89
2019-05-18T20:59:43.455Z,14.81
2019-05-18T21:02:17.293Z,14.76
2019-05-18T21:04:51.132Z,14.70
2019-05-18T21:07:26.205Z,14.62
2019-05-18T21:09:59.924Z,14.56
2019-05-18T21:12:33.658Z,14.51
2019-05-18T21:15:10.379Z,14.41
2019-05-18T21:17:44.302Z,14.37
2019-05-18T21:20:18.364Z,14.28
2019-05-18T21:22:52.046Z,14.24
2019-05-18T21:25:27.453Z,14.18
2019-05-18T21:28:01.181Z,14.08
2019-05-18T21:30:36.947Z,13.99
2019-05-18T21:33:10.732Z,13.91
2019-05-18T21:35:45.478Z,13.88
2019-05-18T21:38:20.588Z,13.84
2019-05-18T21:40:54.402Z,13.79
2019-05-18T21:43:28.410Z,13.76
2019-05-18T21:46:03.345Z,13.67
2019-05-18T21:48:38.249Z,13.60
2019-05-18T21:51:11.883Z,13.54
2019-05-18T21:53:45.655Z,13.50
2019-05-18T21:56:23.310Z,13.47
2019-05-18T21:59:10.710Z,13.38
2019-05-18T22:01:34.143Z,13.35
2019-05-18T22:04:08.039Z,13.27
2019-05-18T22:06:41.917Z,13.23
2019-05-18T22:09:17.869Z,13.20
2019-05-18T22:11:51.945Z,13.15
2019-05-18T22:14:27.210Z,13.14
2019-05-18T22:17:02.140Z,13.08
2019-05-18T22:19:37.995Z,13.02
2019-05-18T22:22:12.060Z,12.97
2019-05-18T22:24:45.809Z,12.95
2019-05-18T22:27:19.610Z,12.88
2019-05-18T22:29:53.671Z,12.85
2019-05-18T22:32:27.721Z,12.81
2019-05-18T22:35:01.576Z,12.83
2019-05-18T22:37:39.059Z,12.83
2019-05-18T22:40:13.099Z,12.79
2019-05-18T22:42:46.812Z,12.75
2019-05-18T22:45:21.747Z,12.73
2019-05-18T22:47:55.462Z,12.63
2019-05-18T22:50:29.282Z,12.52
2019-05-18T22:53:04.251Z,12.50
2019-05-18T22:55:38.489Z,12.43
2019-05-18T22:58:12.194Z,12.38
2019-05-18T23:00:45.883Z,12.27
2019-05-18T23:03:19.849Z,12.23
2019-05-18T23:05:53.689Z,12.16
2019-05-18T23:08:27.870Z,12.12
2019-05-18T23:11:02.168Z,12.07
2019-05-18T23:13:36.262Z,12.07
2019-05-18T23:16:09.992Z,12.02
2019-05-18T23:18:56.549Z,12.00
2019-05-18T23:21:22.622Z,12.02
2019-05-18T23:23:56.494Z,12.03
2019-05-18T23:26:30.146Z,12.01
2019-05-18T23:29:03.814Z,12.01
2019-05-18T23:31:37.415Z,12.00
2019-05-18T23:34:12.462Z,11.96
2019-05-18T23:36:47.976Z,11.94
2019-05-18T23:39:22.973Z,11.83
2019-05-18T23:41:56.857Z,11.83
2019-05-18T23:44:30.586Z,11.76
2019-05-18T23:47:04.364Z,11.74
2019-05-18T23:49:38.231Z,12.13
2019-05-18T23:52:11.912Z,11.96
2019-05-18T23:54:45.765Z,11.87
2019-05-18T23:57:19.945Z,11.78
2019-05-18T23:59:55.137Z,11.87
